createdAt,value
2023-01-18T00:01:13.617Z,52.20
2023-01-18T00:03:41.920Z,52.10
2023-01-18T00:06:17.366Z,52.10
2023-01-18T00:08:46.413Z,52.10
2023-01-18T00:11:15.931Z,52.10
2023-01-18T00:13:44.301Z,52.00
2023-01-18T00:16:16.718Z,52.00
2023-01-18T00:18:44.332Z,52.00
2023-01-18T00:21:13.728Z,52.00
2023-01-18T00:23:41.041Z,52.00
2023-01-18T00:26:12.933Z,51.90
2023-01-18T00:28:44.793Z,51.80
2023-01-18T00:31:13.364Z,52.00
2023-01-18T00:33:43.205Z,52.10
2023-01-18T00:36:10.755Z,51.90
2023-01-18T00:38:38.046Z,51.80
2023-01-18T00:41:07.758Z,51.90
2023-01-18T00:43:36.485Z,51.70
2023-01-18T00:46:05.750Z,51.90
2023-01-18T00:48:36.637Z,52.10
2023-01-18T00:51:05.486Z,51.70
2023-01-18T00:53:36.617Z,51.80
2023-01-18T00:56:06.171Z,51.70
2023-01-18T00:58:36.047Z,51.70
2023-01-18T01:01:07.293Z,51.80
2023-01-18T01:06:25.795Z,51.80
2023-01-18T01:08:53.059Z,51.80
2023-01-18T01:11:20.202Z,51.90
2023-01-18T01:13:51.413Z,51.70
2023-01-18T01:16:18.938Z,51.70
2023-01-18T01:18:46.204Z,51.80
2023-01-18T01:21:13.560Z,51.70
2023-01-18T01:23:45.320Z,51.70
2023-01-18T01:26:25.041Z,51.70
2023-01-18T01:28:53.857Z,51.60
2023-01-18T01:31:24.455Z,51.70
2023-01-18T01:33:53.130Z,51.70
2023-01-18T01:36:21.966Z,51.90
2023-01-18T01:38:52.243Z,51.70
2023-01-18T01:41:26.621Z,51.80
2023-01-18T01:43:59.109Z,51.80
2023-01-18T01:46:42.583Z,51.50
2023-01-18T01:49:20.600Z,51.60
2023-01-18T01:51:56.064Z,51.80
2023-01-18T01:54:27.164Z,51.60
2023-01-18T01:57:03.021Z,51.70
2023-01-18T01:59:35.504Z,51.70
2023-01-18T02:02:03.423Z,51.70
2023-01-18T02:04:31.934Z,51.70
2023-01-18T02:07:02.217Z,51.60
2023-01-18T02:09:30.469Z,51.60
2023-01-18T02:12:04.989Z,51.70
2023-01-18T02:14:33.245Z,51.60
2023-01-18T02:17:16.988Z,51.60
2023-01-18T02:20:06.176Z,51.50
2023-01-18T02:22:53.037Z,51.60
2023-01-18T02:25:40.905Z,51.60
2023-01-18T02:28:13.779Z,51.70
2023-01-18T02:30:44.372Z,51.60
2023-01-18T02:33:18.254Z,51.60
2023-01-18T02:35:50.363Z,51.60
2023-01-18T02:38:20.889Z,51.60
2023-01-18T02:41:00.581Z,51.70
2023-01-18T02:43:29.053Z,51.60
2023-01-18T02:45:56.609Z,51.70
2023-01-18T02:48:24.747Z,51.70
2023-01-18T02:50:51.832Z,51.60
2023-01-18T02:53:18.600Z,51.70
2023-01-18T02:55:53.032Z,51.60
2023-01-18T02:58:25.825Z,51.60
2023-01-18T03:00:58.140Z,51.50
2023-01-18T03:03:25.945Z,51.50
2023-01-18T03:05:55.195Z,51.60
2023-01-18T03:08:27.146Z,51.70
2023-01-18T03:11:00.112Z,51.60
2023-01-18T03:13:36.010Z,51.60
2023-01-18T03:16:09.321Z,51.50
2023-01-18T03:18:42.332Z,51.50
2023-01-18T03:21:09.101Z,51.50
2023-01-18T03:23:39.522Z,51.50
2023-01-18T03:26:07.945Z,51.50
2023-01-18T03:28:36.912Z,51.50
2023-01-18T03:31:09.830Z,51.50
2023-01-18T03:33:40.277Z,51.40
2023-01-18T03:36:10.819Z,51.40
2023-01-18T03:38:39.808Z,51.40
2023-01-18T03:41:08.424Z,51.50
2023-01-18T03:43:36.134Z,51.30
2023-01-18T03:46:03.643Z,51.30
2023-01-18T03:48:33.358Z,51.30
2023-01-18T03:51:05.756Z,51.30
2023-01-18T03:53:38.687Z,51.30
2023-01-18T03:56:10.599Z,51.30
2023-01-18T03:58:37.275Z,51.20
2023-01-18T04:01:04.831Z,51.20
2023-01-18T04:03:34.266Z,51.20
2023-01-18T04:06:04.075Z,51.20
2023-01-18T04:08:30.803Z,51.30
2023-01-18T04:10:57.516Z,51.30
2023-01-18T04:13:24.247Z,51.30
2023-01-18T04:15:50.994Z,51.30
2023-01-18T04:18:17.653Z,51.40
2023-01-18T04:20:45.643Z,51.30
2023-01-18T04:23:12.322Z,51.30
2023-01-18T04:25:38.964Z,51.30
2023-01-18T04:28:05.615Z,52.00
2023-01-18T04:30:32.479Z,51.30
2023-01-18T04:32:59.412Z,51.30
2023-01-18T04:35:26.274Z,51.30
2023-01-18T04:37:54.349Z,51.30
2023-01-18T04:40:21.066Z,51.30
2023-01-18T04:42:52.128Z,51.30
2023-01-18T04:45:18.861Z,51.40
2023-01-18T04:47:45.705Z,51.50
2023-01-18T04:50:12.562Z,51.40
2023-01-18T04:52:39.229Z,51.40
2023-01-18T04:55:08.724Z,51.40
2023-01-18T04:57:35.406Z,51.20
2023-01-18T05:00:02.143Z,51.30
2023-01-18T05:02:28.860Z,51.40
2023-01-18T05:04:55.840Z,51.30
2023-01-18T05:07:24.610Z,51.60
2023-01-18T05:09:51.354Z,51.60
2023-01-18T05:12:19.447Z,51.50
2023-01-18T05:14:46.107Z,51.40
2023-01-18T05:17:12.764Z,51.50
2023-01-18T05:19:39.457Z,51.50
2023-01-18T05:22:06.437Z,51.50
2023-01-18T05:24:33.256Z,51.50
2023-01-18T05:26:59.956Z,51.50
2023-01-18T05:29:28.088Z,51.40
2023-01-18T05:31:54.878Z,51.40
2023-01-18T05:34:21.632Z,51.40
2023-01-18T05:36:48.497Z,51.40
2023-01-18T05:39:15.400Z,51.40
2023-01-18T05:41:42.400Z,51.50
2023-01-18T05:44:09.762Z,51.50
2023-01-18T05:46:37.796Z,51.50
2023-01-18T05:49:04.525Z,51.60
2023-01-18T05:51:31.303Z,51.60
2023-01-18T05:53:57.968Z,51.60
2023-01-18T05:56:24.672Z,51.70
2023-01-18T05:58:51.336Z,51.60
2023-01-18T06:01:18.293Z,51.70
2023-01-18T06:03:46.314Z,51.70
2023-01-18T06:06:13.023Z,52.30
2023-01-18T06:08:40.068Z,51.80
2023-01-18T06:11:06.728Z,51.90
2023-01-18T06:13:33.544Z,51.90
2023-01-18T06:16:01.213Z,52.00
2023-01-18T06:18:29.725Z,52.20
2023-01-18T06:21:01.270Z,52.10
2023-01-18T06:23:28.987Z,52.00
2023-01-18T06:25:55.720Z,51.90
2023-01-18T06:28:22.419Z,51.80
2023-01-18T06:30:52.036Z,51.80
2023-01-18T06:33:18.993Z,51.80
2023-01-18T06:35:45.758Z,51.70
2023-01-18T06:38:13.857Z,51.80
2023-01-18T06:40:40.868Z,51.60
2023-01-18T06:43:07.554Z,51.60
2023-01-18T06:45:34.591Z,51.70
2023-01-18T06:48:01.316Z,52.40
2023-01-18T06:50:28.429Z,51.70
2023-01-18T06:52:55.154Z,51.70
2023-01-18T06:55:23.300Z,51.60
2023-01-18T06:57:50.026Z,51.60
2023-01-18T07:00:17.681Z,51.60
2023-01-18T07:02:44.405Z,51.60
2023-01-18T07:05:11.147Z,51.60
2023-01-18T07:07:38.611Z,51.60
2023-01-18T07:10:06.116Z,51.60
2023-01-18T07:12:36.618Z,51.60
2023-01-18T07:15:20.226Z,51.60
2023-01-18T07:17:47.697Z,51.50
2023-01-18T07:20:14.480Z,51.50
2023-01-18T07:22:41.223Z,51.50
2023-01-18T07:25:10.921Z,51.50
2023-01-18T07:27:39.545Z,51.60
2023-01-18T07:30:07.666Z,51.70
2023-01-18T07:32:34.313Z,51.90
2023-01-18T07:35:01.008Z,51.80
2023-01-18T07:37:27.674Z,51.80
2023-01-18T07:39:54.390Z,51.80
2023-01-18T07:42:21.043Z,51.80
2023-01-18T07:44:49.111Z,51.70
2023-01-18T07:47:15.793Z,51.70
2023-01-18T07:49:42.521Z,51.70
2023-01-18T07:52:09.288Z,51.70
2023-01-18T07:54:35.933Z,51.70
2023-01-18T07:57:02.650Z,51.70
2023-01-18T07:59:29.375Z,51.70
2023-01-18T08:01:57.385Z,51.80
2023-01-18T08:04:24.189Z,51.80
2023-01-18T08:06:54.198Z,51.80
2023-01-18T08:09:20.892Z,51.80
2023-01-18T08:11:47.561Z,51.80
2023-01-18T08:14:14.220Z,51.80
2023-01-18T08:19:20.957Z,51.90
2023-01-18T08:21:49.318Z,52.30
2023-01-18T08:24:26.413Z,52.60
2023-01-18T08:26:53.613Z,52.70
2023-01-18T08:29:23.884Z,52.90
2023-01-18T08:31:53.752Z,52.90
2023-01-18T08:34:22.993Z,52.90
2023-01-18T08:36:53.706Z,53.10
2023-01-18T08:39:22.723Z,53.10
2023-01-18T08:41:51.447Z,53.30
2023-01-18T08:44:20.640Z,53.70
2023-01-18T08:46:49.105Z,53.80
2023-01-18T08:49:18.419Z,54.00
2023-01-18T08:51:47.782Z,54.20
2023-01-18T08:54:21.287Z,54.30
2023-01-18T08:56:57.346Z,54.40
2023-01-18T08:59:26.000Z,54.40
2023-01-18T09:02:01.334Z,54.40
2023-01-18T09:04:42.133Z,54.80
2023-01-18T09:07:23.901Z,54.80
2023-01-18T09:10:02.247Z,54.90
2023-01-18T09:12:32.972Z,55.00
2023-01-18T09:15:03.479Z,55.20
2023-01-18T09:17:36.708Z,55.10
2023-01-18T09:20:05.751Z,55.00
2023-01-18T09:22:36.946Z,54.80
2023-01-18T09:25:06.041Z,54.90
2023-01-18T09:27:36.973Z,55.00
2023-01-18T09:30:07.012Z,55.10
2023-01-18T09:32:36.880Z,55.00
2023-01-18T09:35:07.860Z,55.20
2023-01-18T09:37:36.770Z,55.00
2023-01-18T09:40:06.131Z,55.00
2023-01-18T09:42:38.670Z,54.90
2023-01-18T09:45:07.077Z,55.00
2023-01-18T09:47:46.021Z,54.50
2023-01-18T09:50:16.358Z,54.50
2023-01-18T09:52:54.680Z,54.60
2023-01-18T09:55:28.431Z,54.80
2023-01-18T09:58:07.038Z,55.10
2023-01-18T10:00:37.424Z,55.00
2023-01-18T10:03:13.900Z,55.10
2023-01-18T10:05:53.997Z,55.20
2023-01-18T10:08:26.088Z,55.10
2023-01-18T10:11:02.949Z,55.20
2023-01-18T10:13:44.784Z,54.90
2023-01-18T10:16:15.619Z,54.80
2023-01-18T10:18:45.444Z,54.80
2023-01-18T10:21:24.192Z,55.00
2023-01-18T10:24:15.861Z,55.10
2023-01-18T10:26:46.177Z,55.20
2023-01-18T10:29:19.148Z,54.90
2023-01-18T10:31:56.156Z,55.10
2023-01-18T10:34:26.754Z,55.20
2023-01-18T10:36:58.004Z,55.30
2023-01-18T10:39:35.684Z,55.30
2023-01-18T10:42:17.715Z,55.30
2023-01-18T10:44:45.205Z,55.30
2023-01-18T10:47:17.798Z,55.30
2023-01-18T10:49:47.284Z,55.40
2023-01-18T10:52:25.777Z,55.70
2023-01-18T10:54:59.279Z,56.40
2023-01-18T10:57:30.404Z,55.90
2023-01-18T10:59:58.840Z,55.70
2023-01-18T11:02:29.679Z,56.00
2023-01-18T11:05:01.773Z,55.60
2023-01-18T11:07:29.946Z,55.70
2023-01-18T11:09:59.434Z,55.70
2023-01-18T11:12:32.836Z,55.70
2023-01-18T11:15:21.927Z,55.40
2023-01-18T11:18:00.970Z,55.90
2023-01-18T11:20:33.731Z,55.70
2023-01-18T11:23:03.623Z,55.60
2023-01-18T11:25:39.099Z,55.70
2023-01-18T11:28:13.833Z,55.40
2023-01-18T11:30:50.899Z,55.50
2023-01-18T11:33:20.447Z,55.70
2023-01-18T11:35:53.395Z,55.80
2023-01-18T11:38:28.799Z,55.70
2023-01-18T11:41:12.991Z,55.70
2023-01-18T11:43:59.323Z,55.70
2023-01-18T11:46:40.435Z,55.90
2023-01-18T11:49:16.604Z,55.90
2023-01-18T11:51:51.251Z,55.90
2023-01-18T11:54:28.230Z,55.90
2023-01-18T11:57:03.363Z,56.00
2023-01-18T11:59:31.890Z,55.90
2023-01-18T12:02:28.043Z,55.90
2023-01-18T12:05:13.972Z,56.00
2023-01-18T12:07:56.218Z,56.00
2023-01-18T12:10:25.583Z,55.90
2023-01-18T12:13:21.843Z,55.90
2023-01-18T12:16:14.694Z,55.80
2023-01-18T12:19:35.759Z,55.60
2023-01-18T12:22:20.336Z,55.50
2023-01-18T12:24:58.245Z,55.60
2023-01-18T12:27:36.609Z,55.60
2023-01-18T12:30:30.308Z,55.60
2023-01-18T12:33:16.923Z,55.40
2023-01-18T12:38:32.228Z,55.50
2023-01-18T12:41:28.408Z,55.60
2023-01-18T12:44:32.193Z,55.40
2023-01-18T12:47:11.826Z,55.30
2023-01-18T12:49:51.165Z,55.30
2023-01-18T12:52:22.609Z,55.20
2023-01-18T12:54:54.061Z,54.90
2023-01-18T12:57:33.941Z,54.90
2023-01-18T13:00:16.711Z,54.80
2023-01-18T13:02:58.502Z,54.50
2023-01-18T13:05:38.308Z,54.50
2023-01-18T13:11:01.413Z,54.40
2023-01-18T13:13:32.029Z,54.30
2023-01-18T13:16:17.116Z,54.30
2023-01-18T13:18:55.911Z,54.10
2023-01-18T13:21:33.803Z,54.20
2023-01-18T13:24:11.430Z,54.20
2023-01-18T13:26:46.336Z,54.20
2023-01-18T13:29:24.731Z,54.00
2023-01-18T13:31:54.535Z,54.10
2023-01-18T13:34:33.088Z,54.20
2023-01-18T13:37:14.968Z,54.10
2023-01-18T13:39:48.628Z,54.20
2023-01-18T13:42:26.412Z,54.10
2023-01-18T13:45:18.958Z,53.70
2023-01-18T13:47:53.571Z,53.60
2023-01-18T13:50:47.371Z,53.70
2023-01-18T13:53:46.629Z,53.50
2023-01-18T13:56:27.711Z,53.30
2023-01-18T13:59:14.763Z,53.20
2023-01-18T14:01:44.527Z,53.00
2023-01-18T14:04:25.006Z,53.00
2023-01-18T14:06:57.012Z,53.10
2023-01-18T14:09:37.483Z,53.10
2023-01-18T14:12:05.553Z,53.00
2023-01-18T14:14:34.232Z,53.00
2023-01-18T14:17:10.767Z,52.70
2023-01-18T14:20:01.006Z,52.60
2023-01-18T14:22:56.818Z,52.50
2023-01-18T14:25:47.372Z,52.50
2023-01-18T14:28:18.622Z,52.60
2023-01-18T14:30:47.895Z,52.60
2023-01-18T14:33:24.745Z,52.50
2023-01-18T14:36:00.645Z,52.60
2023-01-18T14:38:29.932Z,52.60
2023-01-18T14:41:05.141Z,52.70
2023-01-18T14:43:34.931Z,52.50
2023-01-18T14:46:06.808Z,52.60
2023-01-18T14:48:38.615Z,52.60
2023-01-18T14:51:14.271Z,52.60
2023-01-18T14:53:49.430Z,52.60
2023-01-18T14:56:19.839Z,52.60
2023-01-18T14:58:55.727Z,52.60
2023-01-18T15:01:34.072Z,52.50
2023-01-18T15:04:04.046Z,52.50
2023-01-18T15:06:41.121Z,52.50
2023-01-18T15:09:15.755Z,52.40
2023-01-18T15:11:53.480Z,52.40
2023-01-18T15:14:24.325Z,52.40
2023-01-18T15:16:56.266Z,52.30
2023-01-18T15:19:43.294Z,52.30
2023-01-18T15:22:17.695Z,52.20
2023-01-18T15:24:48.204Z,52.20
2023-01-18T15:27:19.630Z,52.20
2023-01-18T15:29:51.154Z,51.90
2023-01-18T15:32:21.848Z,51.80
2023-01-18T15:34:51.292Z,51.70
2023-01-18T15:37:23.493Z,51.70
2023-01-18T15:40:05.108Z,51.50
2023-01-18T15:42:40.509Z,51.40
2023-01-18T15:45:21.738Z,51.40
2023-01-18T15:47:51.433Z,51.30
2023-01-18T15:50:20.177Z,51.20
2023-01-18T15:52:58.199Z,51.10
2023-01-18T15:55:35.974Z,51.20
2023-01-18T15:58:07.316Z,51.10
2023-01-18T16:00:39.409Z,50.90
2023-01-18T16:03:17.713Z,51.00
2023-01-18T16:05:57.573Z,51.30
2023-01-18T16:08:24.743Z,51.10
2023-01-18T16:10:55.187Z,51.30
2023-01-18T16:13:33.654Z,51.10
2023-01-18T16:16:21.023Z,51.10
2023-01-18T16:18:51.885Z,52.00
2023-01-18T16:21:43.428Z,51.40
2023-01-18T16:24:20.142Z,51.20
2023-01-18T16:26:49.160Z,51.40
2023-01-18T16:29:18.499Z,51.60
2023-01-18T16:31:46.030Z,51.30
2023-01-18T16:34:22.683Z,51.50
2023-01-18T16:36:50.793Z,51.40
2023-01-18T16:39:22.237Z,51.60
2023-01-18T16:41:55.615Z,51.40
2023-01-18T16:44:28.212Z,51.50
2023-01-18T16:46:56.029Z,51.50
2023-01-18T16:49:23.557Z,51.60
2023-01-18T16:51:51.491Z,51.50
2023-01-18T16:54:18.574Z,51.60
2023-01-18T16:56:45.894Z,51.50
2023-01-18T16:59:21.611Z,51.70
2023-01-18T17:01:53.412Z,51.40
2023-01-18T17:04:20.648Z,51.50
2023-01-18T17:06:50.191Z,51.50
2023-01-18T17:09:23.001Z,51.70
2023-01-18T17:11:50.751Z,51.60
2023-01-18T17:14:20.434Z,51.70
2023-01-18T17:16:50.014Z,51.60
2023-01-18T17:19:19.259Z,51.60
2023-01-18T17:21:48.698Z,51.70
2023-01-18T17:24:17.367Z,51.70
2023-01-18T17:26:46.951Z,51.90
2023-01-18T17:29:17.798Z,51.90
2023-01-18T17:31:52.141Z,51.80
2023-01-18T17:34:28.052Z,51.80
2023-01-18T17:36:59.318Z,51.90
2023-01-18T17:39:42.491Z,51.90
2023-01-18T17:42:18.935Z,51.90
2023-01-18T17:44:50.503Z,52.00
2023-01-18T17:47:21.929Z,52.00
2023-01-18T17:49:49.402Z,52.00
2023-01-18T17:52:17.265Z,52.00
2023-01-18T17:54:47.758Z,52.00
2023-01-18T17:57:15.143Z,52.00
2023-01-18T17:59:42.500Z,51.90
2023-01-18T18:02:12.054Z,52.00
2023-01-18T18:04:43.634Z,52.20
2023-01-18T18:07:10.998Z,52.10
2023-01-18T18:09:38.498Z,52.20
2023-01-18T18:12:06.800Z,52.00
2023-01-18T18:14:36.773Z,51.90
2023-01-18T18:17:07.535Z,51.90
2023-01-18T18:19:35.247Z,52.70
2023-01-18T18:22:04.347Z,52.10
2023-01-18T18:24:31.824Z,51.90
2023-01-18T18:27:01.454Z,52.00
2023-01-18T18:29:29.408Z,52.10
2023-01-18T18:31:59.049Z,52.10
2023-01-18T18:34:26.865Z,52.20
2023-01-18T18:36:54.211Z,52.00
2023-01-18T18:39:24.376Z,52.10
2023-01-18T18:41:51.977Z,52.00
2023-01-18T18:44:19.543Z,51.90
2023-01-18T18:46:47.906Z,51.80
2023-01-18T18:49:16.703Z,51.90
2023-01-18T18:51:44.535Z,52.00
2023-01-18T18:54:13.160Z,51.90
2023-01-18T18:56:42.079Z,51.90
2023-01-18T18:59:09.673Z,51.90
2023-01-18T19:01:37.415Z,51.90
2023-01-18T19:04:05.557Z,51.90
2023-01-18T19:06:35.061Z,51.90
2023-01-18T19:09:02.594Z,51.90
2023-01-18T19:11:32.555Z,52.60
2023-01-18T19:14:02.606Z,51.90
2023-01-18T19:16:30.345Z,52.00
2023-01-18T19:18:58.062Z,51.90
2023-01-18T19:21:26.939Z,51.90
2023-01-18T19:23:57.604Z,52.10
2023-01-18T19:26:25.746Z,51.90
2023-01-18T19:28:53.812Z,52.00
2023-01-18T19:31:23.331Z,52.00
2023-01-18T19:33:51.039Z,52.70
2023-01-18T19:36:20.420Z,51.90
2023-01-18T19:38:55.003Z,51.80
2023-01-18T19:41:27.781Z,52.00
2023-01-18T19:43:58.168Z,51.90
2023-01-18T19:46:27.960Z,51.90
2023-01-18T19:49:00.664Z,51.90
2023-01-18T19:51:29.217Z,52.00
2023-01-18T19:54:00.824Z,52.10
2023-01-18T19:56:28.447Z,52.10
2023-01-18T19:58:56.346Z,52.20
2023-01-18T20:01:35.711Z,52.20
2023-01-18T20:04:07.058Z,52.30
2023-01-18T20:06:38.265Z,52.20
2023-01-18T20:09:18.916Z,52.30
2023-01-18T20:11:48.340Z,52.20
2023-01-18T20:14:20.103Z,52.30
2023-01-18T20:16:48.757Z,52.30
2023-01-18T20:19:21.560Z,52.30
2023-01-18T20:21:53.930Z,52.30
2023-01-18T20:24:23.259Z,52.20
2023-01-18T20:26:51.203Z,52.30
2023-01-18T20:29:18.707Z,52.90
2023-01-18T20:31:50.284Z,52.40
2023-01-18T20:34:20.307Z,52.30
2023-01-18T20:36:48.606Z,52.30
2023-01-18T20:39:19.593Z,52.40
2023-01-18T20:41:49.048Z,52.40
2023-01-18T20:44:19.789Z,52.10
2023-01-18T20:46:50.231Z,52.30
2023-01-18T20:49:38.719Z,52.30
2023-01-18T20:52:07.159Z,52.20
2023-01-18T20:54:39.196Z,52.20
2023-01-18T20:57:07.081Z,52.20
2023-01-18T20:59:37.132Z,52.20
2023-01-18T21:02:08.127Z,52.20
2023-01-18T21:04:39.984Z,52.20
2023-01-18T21:07:08.485Z,52.00
2023-01-18T21:09:37.212Z,52.30
2023-01-18T21:12:06.165Z,52.20
2023-01-18T21:14:37.388Z,52.20
2023-01-18T21:17:04.849Z,52.20
2023-01-18T21:19:33.315Z,52.10
2023-01-18T21:22:02.430Z,52.10
2023-01-18T21:24:30.248Z,52.10
2023-01-18T21:27:00.516Z,51.90
2023-01-18T21:29:28.852Z,51.90
2023-01-18T21:32:02.513Z,51.90
2023-01-18T21:34:30.290Z,51.70
2023-01-18T21:37:02.736Z,51.80
2023-01-18T21:39:31.155Z,51.80
2023-01-18T21:41:59.338Z,51.90
2023-01-18T21:44:28.179Z,51.90
2023-01-18T21:46:56.073Z,51.60
2023-01-18T21:49:32.902Z,51.60
2023-01-18T21:52:05.490Z,51.60
2023-01-18T21:54:34.873Z,51.50
2023-01-18T21:57:06.237Z,51.50
2023-01-18T21:59:34.748Z,51.50
2023-01-18T22:02:06.425Z,51.50
2023-01-18T22:04:34.071Z,51.50
2023-01-18T22:07:07.292Z,51.50
2023-01-18T22:09:38.965Z,51.40
2023-01-18T22:12:11.314Z,51.50
2023-01-18T22:14:44.879Z,51.40
2023-01-18T22:17:13.420Z,51.50
2023-01-18T22:19:42.414Z,51.40
2023-01-18T22:22:11.383Z,51.60
2023-01-18T22:24:40.980Z,51.40
2023-01-18T22:27:08.573Z,51.60
2023-01-18T22:29:36.324Z,51.50
2023-01-18T22:32:04.533Z,51.60
2023-01-18T22:34:38.458Z,51.60
2023-01-18T22:37:14.210Z,51.40
2023-01-18T22:39:49.249Z,51.40
2023-01-18T22:42:17.548Z,51.60
2023-01-18T22:44:48.393Z,51.40
2023-01-18T22:47:19.550Z,51.40
2023-01-18T22:49:47.815Z,51.50
2023-01-18T22:52:15.566Z,51.60
2023-01-18T22:54:47.380Z,51.60
2023-01-18T22:57:18.400Z,51.70
2023-01-18T22:59:46.793Z,51.60
2023-01-18T23:02:17.238Z,51.50
2023-01-18T23:04:48.347Z,51.70
2023-01-18T23:07:16.426Z,51.50
2023-01-18T23:09:51.388Z,51.50
2023-01-18T23:12:31.133Z,51.70
2023-01-18T23:15:02.997Z,51.50
2023-01-18T23:17:39.704Z,51.70
2023-01-18T23:20:10.327Z,51.80
2023-01-18T23:22:38.576Z,51.70
2023-01-18T23:25:11.933Z,51.70
2023-01-18T23:27:43.591Z,51.70
2023-01-18T23:30:21.968Z,51.70
2023-01-18T23:32:50.343Z,51.40
2023-01-18T23:35:19.711Z,51.50
2023-01-18T23:37:48.555Z,51.60
2023-01-18T23:40:23.895Z,51.50
2023-01-18T23:43:07.077Z,51.40
2023-01-18T23:45:35.259Z,51.60
2023-01-18T23:48:09.544Z,51.60
2023-01-18T23:50:40.608Z,51.50
2023-01-18T23:53:16.218Z,51.40
2023-01-18T23:55:53.764Z,51.50
2023-01-18T23:58:23.070Z,51.50
